Time;durP1;ratioP1;P1;durP2;ratioP2;P2;SDS_P1;SDS_P2;PMS_P1;PMS_P2;Temp;Humidity;BMP_temperature;BMP_pressure;BME280_temperature;BME280_humidity;BME280_pressure;Samples;Min_cycle;Max_cycle;Signal;HPM_P1;HPM_P2
2024/03/07 00:00:42;;;;;;;3.40;2.92;;;19.20;57.10;;;;;;5023498;28;20108;-67
2024/03/07 00:03:08;;;;;;;5.85;3.55;;;19.20;57.10;;;;;;5021492;28;21257;-68
2024/03/07 00:05:33;;;;;;;4.22;3.17;;;19.20;57.10;;;;;;5023774;28;20053;-67
2024/03/07 00:07:59;;;;;;;6.80;3.40;;;19.20;57.10;;;;;;5023970;28;20380;-66
2024/03/07 00:10:24;;;;;;;3.63;3.33;;;19.20;57.20;;;;;;5017806;28;20026;-67
2024/03/07 00:12:50;;;;;;;4.97;3.50;;;19.20;57.80;;;;;;5021169;28;20025;-68
2024/03/07 00:15:16;;;;;;;4.13;3.30;;;19.20;57.10;;;;;;5018553;28;20091;-68
2024/03/07 00:17:42;;;;;;;3.08;2.80;;;19.20;57.10;;;;;;5023268;28;20584;-67
2024/03/07 00:20:09;;;;;;;4.03;3.63;;;19.20;57.10;;;;;;5021246;28;20025;-68
2024/03/07 00:22:37;;;;;;;3.72;3.42;;;19.20;57.10;;;;;;5024243;28;20070;-64
2024/03/07 00:25:06;;;;;;;4.07;3.67;;;19.20;57.10;;;;;;5022160;28;20095;-67
2024/03/07 00:27:33;;;;;;;3.88;3.47;;;19.20;57.10;;;;;;5021127;28;20484;-67
2024/03/07 00:29:59;;;;;;;6.22;3.47;;;19.20;57.10;;;;;;5019962;28;20025;-67
2024/03/07 00:32:24;;;;;;;3.65;3.33;;;19.20;57.00;;;;;;5018489;28;20033;-68
2024/03/07 00:34:50;;;;;;;3.65;3.35;;;19.20;57.00;;;;;;5017369;28;20057;-65
2024/03/07 00:37:16;;;;;;;5.30;3.58;;;19.20;57.10;;;;;;5022092;28;20072;-67
2024/03/07 00:39:42;;;;;;;3.58;3.28;;;19.20;57.00;;;;;;4991787;28;20033;-65
2024/03/07 00:42:08;;;;;;;4.07;3.40;;;19.20;57.10;;;;;;5026946;28;20090;-67
2024/03/07 00:44:36;;;;;;;4.78;4.20;;;19.20;57.10;;;;;;5018047;28;20117;-67
2024/03/07 00:47:02;;;;;;;3.70;3.33;;;19.20;57.00;;;;;;5018552;28;20044;-66
2024/03/07 00:49:28;;;;;;;3.90;2.88;;;19.20;57.00;;;;;;5015166;28;20041;-67
2024/03/07 00:51:54;;;;;;;3.75;3.42;;;19.20;57.00;;;;;;5024598;28;20129;-63
2024/03/07 00:54:19;;;;;;;4.03;3.50;;;19.20;57.00;;;;;;5019115;28;20132;-67
2024/03/07 00:56:47;;;;;;;3.95;3.38;;;19.20;57.00;;;;;;5024548;28;20038;-67
2024/03/07 00:59:14;;;;;;;3.58;3.20;;;19.20;57.00;;;;;;4992728;28;20547;-66
2024/03/07 01:01:41;;;;;;;5.13;3.80;;;19.20;57.00;;;;;;5028369;28;20094;-67
2024/03/07 01:04:07;;;;;;;4.35;3.58;;;19.20;57.00;;;;;;5018310;28;20048;-67
2024/03/07 01:06:33;;;;;;;3.85;3.47;;;19.20;57.10;;;;;;5025642;28;20037;-67
2024/03/07 01:08:58;;;;;;;3.95;3.55;;;19.20;57.20;;;;;;5015704;28;20443;-67
2024/03/07 01:11:24;;;;;;;3.42;3.13;;;19.10;57.20;;;;;;5019767;28;20437;-67
2024/03/07 01:13:50;;;;;;;3.85;3.45;;;19.10;57.20;;;;;;5018078;28;20091;-67
2024/03/07 01:16:15;;;;;;;3.75;3.35;;;19.10;57.30;;;;;;5021599;28;20030;-67
2024/03/07 01:18:41;;;;;;;4.20;3.80;;;19.00;57.30;;;;;;5015863;28;20056;-67
2024/03/07 01:21:08;;;;;;;4.38;3.97;;;19.00;57.40;;;;;;5022192;28;20037;-66
2024/03/07 01:23:33;;;;;;;4.30;3.20;;;19.00;57.50;;;;;;5020501;28;20473;-67
2024/03/07 01:25:59;;;;;;;4.18;3.78;;;18.90;57.50;;;;;;5022537;28;20127;-67
2024/03/07 01:28:25;;;;;;;4.10;3.70;;;18.90;57.70;;;;;;5018422;28;20493;-67
2024/03/07 01:30:52;;;;;;;4.10;3.70;;;18.80;57.70;;;;;;5019094;28;20056;-67
2024/03/07 01:33:21;;;;;;;5.53;3.85;;;18.80;57.70;;;;;;5022520;28;20037;-67
2024/03/07 01:35:48;;;;;;;3.95;3.55;;;18.80;57.80;;;;;;5002540;28;20089;-67
2024/03/07 01:38:14;;;;;;;4.13;3.72;;;18.80;57.70;;;;;;5023259;28;20113;-67
2024/03/07 01:40:40;;;;;;;4.63;4.15;;;18.80;57.70;;;;;;5021080;28;21094;-67
2024/03/07 01:43:07;;;;;;;4.03;3.63;;;18.80;57.70;;;;;;5021980;28;20040;-64
2024/03/07 01:45:32;;;;;;;3.85;3.47;;;18.80;57.60;;;;;;5021660;28;20045;-67
2024/03/07 01:47:59;;;;;;;4.65;4.25;;;18.80;57.60;;;;;;5021944;28;20075;-67
2024/03/07 01:50:24;;;;;;;4.38;3.92;;;18.80;57.60;;;;;;5004444;28;20026;-67
2024/03/07 01:52:55;;;;;;;4.25;3.85;;;18.80;57.60;;;;;;5022466;28;20029;-67
2024/03/07 01:55:22;;;;;;;4.55;3.50;;;18.90;57.50;;;;;;5014722;28;20563;-67
2024/03/07 01:57:47;;;;;;;4.13;3.72;;;18.90;57.50;;;;;;5019072;28;20038;-66
2024/03/07 02:00:13;;;;;;;4.50;4.03;;;18.90;57.40;;;;;;5019943;28;20537;-67
2024/03/07 02:02:39;;;;;;;4.03;3.45;;;18.90;57.40;;;;;;5028590;28;20489;-67
2024/03/07 02:05:05;;;;;;;3.85;3.55;;;18.90;57.30;;;;;;5026423;28;20036;-66
2024/03/07 02:07:31;;;;;;;3.60;3.30;;;19.00;57.30;;;;;;5025268;28;20088;-67
2024/03/07 02:10:04;;;;;;;4.32;3.92;;;18.90;57.20;;;;;;5024559;28;20037;-68
2024/03/07 02:12:30;;;;;;;4.13;3.58;;;19.00;57.20;;;;;;5022702;28;20064;-68
2024/03/07 02:14:57;;;;;;;3.97;3.58;;;19.00;57.10;;;;;;5025473;28;20099;-67
2024/03/07 02:17:23;;;;;;;4.20;3.55;;;19.00;57.10;;;;;;5027416;28;20034;-68
2024/03/07 02:19:49;;;;;;;4.07;3.67;;;19.00;57.60;;;;;;5026437;28;20488;-67
2024/03/07 02:22:14;;;;;;;4.25;3.83;;;19.10;57.00;;;;;;5023980;28;20043;-66
2024/03/07 02:24:40;;;;;;;4.15;3.75;;;19.10;56.90;;;;;;5025647;28;20492;-67
2024/03/07 02:27:05;;;;;;;4.13;3.72;;;19.10;56.90;;;;;;5021641;28;20083;-67
2024/03/07 02:29:31;;;;;;;4.38;3.97;;;19.20;56.80;;;;;;5024116;28;20037;-66
2024/03/07 02:31:56;;;;;;;3.67;3.38;;;19.20;56.80;;;;;;5025543;28;20443;-66
2024/03/07 02:34:22;;;;;;;4.13;3.72;;;19.20;56.80;;;;;;5025269;28;20054;-67
2024/03/07 02:36:48;;;;;;;3.88;3.47;;;19.20;56.70;;;;;;5024801;28;20033;-68
2024/03/07 02:39:13;;;;;;;3.35;3.05;;;19.20;56.70;;;;;;5027070;28;20029;-67
2024/03/07 02:41:38;;;;;;;4.30;3.90;;;19.20;56.70;;;;;;5023424;28;20116;-68
2024/03/07 02:44:04;;;;;;;4.00;3.40;;;19.20;56.70;;;;;;5024382;28;20037;-67
2024/03/07 02:46:32;;;;;;;5.32;3.45;;;19.20;56.70;;;;;;5023968;28;20033;-67
2024/03/07 02:48:57;;;;;;;4.93;3.90;;;19.20;56.60;;;;;;5025098;28;20041;-68
2024/03/07 02:51:24;;;;;;;5.55;3.83;;;19.20;56.60;;;;;;5024194;28;20084;-68
2024/03/07 02:53:49;;;;;;;4.13;3.72;;;19.30;56.60;;;;;;5026181;28;20048;-68
2024/03/07 02:56:15;;;;;;;3.78;3.47;;;19.30;56.60;;;;;;5018652;28;20376;-68
2024/03/07 02:58:41;;;;;;;3.90;3.50;;;19.30;56.60;;;;;;5017208;28;20033;-67
2024/03/07 03:01:06;;;;;;;4.25;3.85;;;19.30;56.50;;;;;;5024894;28;20112;-67
2024/03/07 03:03:32;;;;;;;4.10;3.70;;;19.30;56.50;;;;;;5022708;28;20552;-67
2024/03/07 03:05:58;;;;;;;4.05;3.65;;;19.30;56.50;;;;;;5020678;28;20071;-67
2024/03/07 03:08:24;;;;;;;5.07;4.10;;;19.30;56.50;;;;;;5021557;28;20060;-67
2024/03/07 03:10:53;;;;;;;4.40;3.45;;;19.30;56.50;;;;;;5017921;28;20583;-67
2024/03/07 03:13:18;;;;;;;5.03;3.63;;;19.30;56.60;;;;;;5022099;28;20099;-68
2024/03/07 03:15:43;;;;;;;4.47;4.07;;;19.30;56.60;;;;;;5022945;28;20021;-67
2024/03/07 03:18:09;;;;;;;4.88;4.15;;;19.30;56.60;;;;;;5024197;28;20116;-67
2024/03/07 03:20:38;;;;;;;4.28;3.88;;;19.30;56.60;;;;;;5025623;28;20054;-68
2024/03/07 03:23:05;;;;;;;4.25;3.85;;;19.30;56.60;;;;;;5023978;28;20013;-67
2024/03/07 03:25:34;;;;;;;4.13;3.58;;;19.30;56.60;;;;;;5020449;28;20481;-67
2024/03/07 03:28:01;;;;;;;4.28;3.88;;;19.20;56.60;;;;;;5020897;28;20411;-67
2024/03/07 03:30:26;;;;;;;4.80;4.22;;;19.20;56.60;;;;;;5024435;28;20477;-67
2024/03/07 03:32:51;;;;;;;4.65;4.20;;;19.20;56.60;;;;;;5023049;28;20071;-68
2024/03/07 03:35:18;;;;;;;3.85;3.47;;;19.20;56.70;;;;;;5021760;28;20051;-68
2024/03/07 03:37:44;;;;;;;4.85;4.25;;;19.20;56.80;;;;;;5022350;28;20111;-68
2024/03/07 03:40:10;;;;;;;4.18;3.78;;;19.20;56.80;;;;;;5023295;28;20033;-68
2024/03/07 03:42:37;;;;;;;5.13;4.13;;;19.20;56.90;;;;;;5021013;28;20018;-68
2024/03/07 03:45:06;;;;;;;4.18;3.78;;;19.10;56.80;;;;;;5005607;28;20036;-69
2024/03/07 03:47:36;;;;;;;5.32;4.35;;;19.10;56.80;;;;;;5022190;28;20071;-68
2024/03/07 03:50:06;;;;;;;4.53;4.13;;;19.10;56.80;;;;;;5019505;28;20018;-67
2024/03/07 03:52:32;;;;;;;4.40;4.00;;;19.10;56.90;;;;;;5018381;28;20427;-68
2024/03/07 03:54:58;;;;;;;5.20;4.70;;;19.10;57.00;;;;;;5022496;28;20037;-67
2024/03/07 03:57:25;;;;;;;4.75;4.25;;;19.10;57.00;;;;;;5019420;28;20049;-67
2024/03/07 03:59:51;;;;;;;4.45;3.90;;;19.00;56.90;;;;;;5020857;28;20072;-67
2024/03/07 04:02:19;;;;;;;4.50;4.10;;;19.00;56.90;;;;;;5015222;28;20335;-68
2024/03/07 04:04:45;;;;;;;4.78;4.00;;;19.00;56.90;;;;;;5017967;28;20120;-68
2024/03/07 04:07:12;;;;;;;5.20;4.00;;;19.00;57.00;;;;;;5023712;28;20479;-67
2024/03/07 04:09:38;;;;;;;4.35;3.95;;;19.00;57.00;;;;;;5019138;28;20034;-68
2024/03/07 04:12:03;;;;;;;9.88;4.65;;;19.00;57.00;;;;;;5022290;28;20037;-67
2024/03/07 04:14:32;;;;;;;4.60;4.20;;;19.00;57.00;;;;;;5020812;28;20038;-67
2024/03/07 04:16:58;;;;;;;4.72;4.32;;;19.00;57.00;;;;;;5021471;28;20878;-68
2024/03/07 04:19:24;;;;;;;4.50;4.10;;;19.00;57.00;;;;;;5018100;28;20498;-67
2024/03/07 04:21:49;;;;;;;4.65;4.25;;;19.00;57.10;;;;;;5023212;28;20035;-68
2024/03/07 04:24:14;;;;;;;4.88;4.38;;;19.00;57.10;;;;;;5017494;28;20026;-68
2024/03/07 04:26:43;;;;;;;5.30;4.80;;;19.00;57.10;;;;;;5027815;28;20033;-68
2024/03/07 04:29:08;;;;;;;5.22;4.72;;;19.00;57.10;;;;;;5004363;28;21573;-67
2024/03/07 04:31:34;;;;;;;4.70;4.25;;;19.00;57.10;;;;;;5018471;28;20770;-68
2024/03/07 04:34:00;;;;;;;4.88;4.47;;;19.00;57.10;;;;;;5015998;28;20041;-68
2024/03/07 04:36:25;;;;;;;4.60;4.20;;;19.00;57.10;;;;;;5021049;28;20400;-67
2024/03/07 04:38:52;;;;;;;4.57;4.18;;;19.00;57.10;;;;;;5022032;28;20092;-67
2024/03/07 04:41:17;;;;;;;4.70;4.20;;;19.00;57.10;;;;;;5019413;28;20523;-67
2024/03/07 04:43:44;;;;;;;4.68;4.22;;;19.00;57.00;;;;;;5021338;28;20034;-70
2024/03/07 04:46:09;;;;;;;4.85;4.40;;;18.90;56.90;;;;;;5025066;28;20040;-66
2024/03/07 04:48:35;;;;;;;4.78;4.38;;;19.00;57.10;;;;;;5015439;28;20501;-68
2024/03/07 04:51:00;;;;;;;4.97;4.55;;;19.00;57.10;;;;;;5025651;28;20056;-66
2024/03/07 04:53:25;;;;;;;4.63;4.20;;;19.00;57.10;;;;;;5020432;28;20049;-67
2024/03/07 04:55:51;;;;;;;5.03;4.50;;;19.00;56.90;;;;;;5024441;28;20036;-63
2024/03/07 04:58:17;;;;;;;4.82;4.38;;;19.00;57.00;;;;;;5013274;28;20677;-65
2024/03/07 05:00:42;;;;;;;4.68;4.03;;;19.00;56.90;;;;;;5013090;28;20030;-67
2024/03/07 05:03:09;;;;;;;4.75;4.35;;;18.90;57.00;;;;;;5024382;28;20022;-67
2024/03/07 05:05:34;;;;;;;4.70;4.30;;;19.00;57.10;;;;;;5024341;28;20034;-66
2024/03/07 05:08:00;;;;;;;5.05;4.50;;;18.90;57.00;;;;;;5023082;28;20063;-67
2024/03/07 05:10:28;;;;;;;5.93;4.57;;;19.00;57.00;;;;;;5025133;28;20041;-66
2024/03/07 05:12:53;;;;;;;4.35;3.95;;;19.00;57.10;;;;;;5021651;28;20026;-67
2024/03/07 05:15:19;;;;;;;5.38;4.88;;;19.00;57.00;;;;;;5028223;28;20044;-66
2024/03/07 05:17:44;;;;;;;4.57;4.18;;;19.00;57.00;;;;;;5018416;28;20036;-66
2024/03/07 05:20:12;;;;;;;4.72;4.13;;;19.00;57.00;;;;;;5021141;28;20025;-67
2024/03/07 05:22:44;;;;;;;5.40;4.90;;;19.00;57.00;;;;;;5020714;28;20053;-63
2024/03/07 05:25:09;;;;;;;4.45;4.05;;;19.00;56.90;;;;;;5021641;28;20152;-66
2024/03/07 05:27:36;;;;;;;4.43;4.03;;;19.00;57.00;;;;;;5020410;28;20116;-65
2024/03/07 05:30:03;;;;;;;4.60;4.20;;;19.00;56.90;;;;;;5019547;28;20026;-66
2024/03/07 05:32:28;;;;;;;4.97;4.50;;;19.00;56.90;;;;;;5027032;28;20079;-67
2024/03/07 05:34:54;;;;;;;4.45;4.05;;;19.00;57.00;;;;;;5022841;28;20038;-65
2024/03/07 05:37:21;;;;;;;5.10;4.60;;;19.00;56.90;;;;;;5017204;28;20566;-66
2024/03/07 05:39:47;;;;;;;5.40;4.68;;;19.00;56.90;;;;;;5021880;28;20041;-67
2024/03/07 05:42:14;;;;;;;5.78;4.13;;;19.00;56.90;;;;;;5027747;28;20055;-64
2024/03/07 05:44:43;;;;;;;4.57;4.18;;;19.00;57.50;;;;;;5026337;28;20112;-66
2024/03/07 05:47:09;;;;;;;4.40;4.00;;;19.00;56.90;;;;;;5028752;28;20613;-66
2024/03/07 05:49:36;;;;;;;5.47;4.47;;;19.00;56.90;;;;;;5018158;28;20037;-64
2024/03/07 05:52:02;;;;;;;5.03;4.53;;;19.00;56.90;;;;;;5029622;28;20036;-66
2024/03/07 05:54:29;;;;;;;4.55;4.15;;;19.00;57.50;;;;;;5027045;28;20041;-66
2024/03/07 05:56:54;;;;;;;4.68;4.28;;;19.00;56.90;;;;;;5023865;28;20030;-66
2024/03/07 05:59:21;;;;;;;4.50;4.10;;;19.00;56.80;;;;;;5022252;28;20032;-66
2024/03/07 06:01:47;;;;;;;4.60;4.20;;;19.00;56.80;;;;;;5016072;28;20111;-67
2024/03/07 06:04:12;;;;;;;4.30;3.90;;;19.00;56.80;;;;;;5021362;28;20164;-67
2024/03/07 06:06:38;;;;;;;4.60;4.20;;;19.00;56.80;;;;;;5023289;28;20542;-63
2024/03/07 06:09:09;;;;;;;4.50;4.05;;;19.00;56.90;;;;;;5023033;28;20041;-65
2024/03/07 06:11:35;;;;;;;4.85;4.05;;;19.00;56.80;;;;;;5024849;28;20049;-64
2024/03/07 06:14:02;;;;;;;4.72;4.32;;;19.00;56.80;;;;;;5025310;28;20045;-64
2024/03/07 06:16:28;;;;;;;4.55;4.15;;;19.10;56.80;;;;;;5012833;28;20544;-66
2024/03/07 06:18:54;;;;;;;4.88;4.05;;;19.00;56.80;;;;;;5023389;28;20651;-61
2024/03/07 06:21:20;;;;;;;4.43;4.03;;;19.10;56.80;;;;;;5026346;28;20040;-67
2024/03/07 06:23:47;;;;;;;4.57;4.18;;;19.00;56.80;;;;;;5006407;28;20052;-66
2024/03/07 06:26:16;;;;;;;4.93;4.47;;;19.10;56.80;;;;;;5023636;28;20040;-66
2024/03/07 06:28:42;;;;;;;4.72;4.00;;;19.00;56.70;;;;;;5023833;28;20025;-65
2024/03/07 06:31:10;;;;;;;5.10;3.90;;;19.10;56.80;;;;;;5022821;28;20413;-66
2024/03/07 06:33:37;;;;;;;4.47;4.07;;;19.10;56.80;;;;;;5023946;28;20053;-65
2024/03/07 06:36:02;;;;;;;4.57;4.18;;;19.00;56.80;;;;;;5024187;28;20032;-66
2024/03/07 06:38:28;;;;;;;5.13;4.63;;;19.10;56.80;;;;;;5026393;28;20033;-65
2024/03/07 06:40:53;;;;;;;5.28;4.78;;;19.00;56.80;;;;;;5024884;28;20096;-66
2024/03/07 06:43:19;;;;;;;6.78;4.82;;;19.10;56.90;;;;;;5027759;28;20033;-66
2024/03/07 06:45:46;;;;;;;5.13;4.30;;;19.00;56.80;;;;;;5023215;28;20033;-66
2024/03/07 06:48:14;;;;;;;6.18;4.82;;;19.10;56.90;;;;;;5029867;28;20025;-62
2024/03/07 06:50:39;;;;;;;5.80;5.03;;;19.10;56.90;;;;;;5022299;28;20496;-65
2024/03/07 06:53:09;;;;;;;5.15;4.53;;;19.10;56.90;;;;;;5024570;28;20120;-65
2024/03/07 06:55:34;;;;;;;5.85;5.22;;;19.10;56.90;;;;;;5028354;28;20033;-65
2024/03/07 06:58:00;;;;;;;5.63;5.07;;;19.10;56.90;;;;;;5025629;28;20505;-64
2024/03/07 07:00:26;;;;;;;8.10;5.55;;;19.10;56.90;;;;;;5017170;28;20091;-63
2024/03/07 07:02:54;;;;;;;5.68;4.50;;;19.10;56.80;;;;;;5025091;28;20036;-65
2024/03/07 07:05:20;;;;;;;6.32;5.18;;;19.00;56.80;;;;;;5023091;28;20422;-64
2024/03/07 07:07:46;;;;;;;8.85;5.47;;;19.10;56.90;;;;;;5024239;28;20044;-65
2024/03/07 07:10:18;;;;;;;6.53;5.00;;;19.10;56.90;;;;;;5020007;28;20025;-63
2024/03/07 07:12:48;;;;;;;11.65;6.35;;;19.00;56.80;;;;;;5025558;28;20033;-65
2024/03/07 07:15:18;;;;;;;8.23;5.60;;;19.10;56.80;;;;;;5021810;28;20053;-65
2024/03/07 07:17:48;;;;;;;7.03;5.28;;;19.10;57.40;;;;;;5023983;28;20022;-65
2024/03/07 07:20:15;;;;;;;9.55;5.70;;;19.10;56.80;;;;;;5018242;28;20041;-65
2024/03/07 07:22:41;;;;;;;7.35;5.95;;;19.10;56.80;;;;;;5024606;28;20572;-64
2024/03/07 07:25:13;;;;;;;8.68;6.07;;;19.10;56.80;;;;;;5022993;28;20052;-64
2024/03/07 07:27:45;;;;;;;8.13;5.82;;;19.10;56.80;;;;;;5021648;28;20033;-62
2024/03/07 07:30:13;;;;;;;9.13;5.85;;;19.10;56.80;;;;;;5020059;28;20112;-63
2024/03/07 07:32:39;;;;;;;7.85;5.70;;;19.10;56.70;;;;;;5016667;28;20033;-64
2024/03/07 07:35:11;;;;;;;11.07;6.50;;;19.10;56.80;;;;;;5005496;28;20029;-65
2024/03/07 07:37:41;;;;;;;9.95;5.00;;;19.10;56.80;;;;;;5020655;28;20055;-62
2024/03/07 07:40:14;;;;;;;9.23;6.15;;;19.10;56.70;;;;;;5024479;28;20033;-66
2024/03/07 07:42:41;;;;;;;7.78;6.05;;;19.10;56.70;;;;;;5020868;28;20404;-67
2024/03/07 07:45:12;;;;;;;7.43;5.93;;;19.10;56.80;;;;;;5018365;28;20076;-66
2024/03/07 07:47:58;;;;;;;9.52;6.13;;;19.10;56.80;;;;;;5021294;28;20732;-65
2024/03/07 07:50:24;;;;;;;8.48;5.80;;;19.10;56.80;;;;;;5019786;28;20048;-66
2024/03/07 07:52:55;;;;;;;10.65;6.70;;;19.10;56.70;;;;;;4996637;28;20041;-67
2024/03/07 07:55:22;;;;;;;10.98;6.65;;;19.20;56.80;;;;;;4974334;28;20393;-67
2024/03/07 07:57:59;;;;;;;13.05;7.53;;;19.10;56.70;;;;;;4968695;28;20504;-68
2024/03/07 08:00:28;;;;;;;11.00;6.80;;;19.10;56.70;;;;;;5015212;28;20075;-66
2024/03/07 08:02:58;;;;;;;9.93;6.30;;;19.10;56.80;;;;;;5018350;28;20026;-66
2024/03/07 08:05:25;;;;;;;14.00;8.07;;;19.10;56.90;;;;;;5017780;28;20029;-65
2024/03/07 08:07:52;;;;;;;10.52;7.18;;;19.00;57.00;;;;;;5017885;28;20690;-66
2024/03/07 08:10:19;;;;;;;10.15;7.15;;;19.00;57.10;;;;;;5015385;28;20036;-65
2024/03/07 08:12:45;;;;;;;10.68;7.22;;;19.00;57.20;;;;;;5018017;28;20079;-66
2024/03/07 08:15:14;;;;;;;11.05;7.57;;;18.90;57.30;;;;;;5017609;28;20045;-60
2024/03/07 08:17:42;;;;;;;10.65;7.65;;;18.90;57.30;;;;;;5022189;28;20091;-65
2024/03/07 08:20:11;;;;;;;13.38;7.78;;;18.80;57.40;;;;;;5015038;28;20100;-64
2024/03/07 08:22:40;;;;;;;10.07;7.93;;;18.80;57.50;;;;;;5018981;28;20055;-65
2024/03/07 08:25:13;;;;;;;12.13;8.00;;;18.80;57.50;;;;;;5017429;28;20540;-63
2024/03/07 08:27:41;;;;;;;12.50;7.80;;;18.80;57.60;;;;;;5014887;28;20049;-63
2024/03/07 08:30:12;;;;;;;15.43;9.20;;;18.80;57.60;;;;;;5019901;28;20034;-65
2024/03/07 08:32:39;;;;;;;12.52;8.70;;;18.80;57.60;;;;;;5015501;28;20041;-66
2024/03/07 08:35:09;;;;;;;10.27;7.53;;;18.70;57.50;;;;;;5023473;28;20038;-66
2024/03/07 08:37:39;;;;;;;12.25;7.70;;;18.70;57.90;;;;;;5016717;28;20029;-62
2024/03/07 08:40:06;;;;;;;14.43;8.02;;;18.70;58.30;;;;;;5022477;28;20058;-66
2024/03/07 08:42:33;;;;;;;13.15;7.97;;;18.70;57.80;;;;;;5019824;28;20037;-66
2024/03/07 08:45:05;;;;;;;10.23;7.47;;;18.70;57.90;;;;;;5018499;28;20034;-64
2024/03/07 08:47:32;;;;;;;9.55;7.60;;;18.70;57.90;;;;;;5020710;28;20079;-66
2024/03/07 08:49:58;;;;;;;9.52;7.35;;;18.70;57.80;;;;;;5023905;28;20427;-66
2024/03/07 08:52:23;;;;;;;11.05;7.35;;;18.70;57.70;;;;;;5020148;28;20564;-65
2024/03/07 08:54:49;;;;;;;12.48;8.48;;;18.70;57.60;;;;;;5023663;28;20077;-62
2024/03/07 08:57:16;;;;;;;11.10;7.63;;;18.80;57.50;;;;;;5020695;28;20029;-65
2024/03/07 08:59:43;;;;;;;11.77;7.40;;;18.80;57.40;;;;;;5017425;28;20091;-65
2024/03/07 09:02:08;;;;;;;10.45;6.80;;;18.90;57.30;;;;;;5021859;28;20673;-65
2024/03/07 09:04:34;;;;;;;9.30;7.15;;;18.90;57.10;;;;;;5018325;28;20125;-61
2024/03/07 09:06:59;;;;;;;9.13;7.30;;;19.00;56.90;;;;;;5003361;28;20025;-64
2024/03/07 09:09:25;;;;;;;11.00;7.38;;;19.10;56.80;;;;;;5019353;28;20048;-65
2024/03/07 09:11:50;;;;;;;10.10;7.22;;;19.10;56.70;;;;;;5023296;28;20129;-64
2024/03/07 09:14:16;;;;;;;10.27;7.47;;;19.20;56.60;;;;;;5017952;28;20033;-65
2024/03/07 09:16:43;;;;;;;8.88;7.15;;;19.20;56.50;;;;;;5022129;28;20059;-66
2024/03/07 09:19:13;;;;;;;13.13;7.75;;;19.20;56.50;;;;;;5024361;28;20032;-62
2024/03/07 09:21:40;;;;;;;9.15;7.53;;;19.20;56.30;;;;;;5019414;28;20072;-65
2024/03/07 09:24:07;;;;;;;11.98;8.02;;;19.30;56.40;;;;;;5023134;28;20436;-66
2024/03/07 09:26:33;;;;;;;8.07;6.68;;;19.30;56.20;;;;;;5021328;28;20083;-63
2024/03/07 09:29:01;;;;;;;11.15;7.78;;;19.40;56.20;;;;;;5021847;28;20041;-66
2024/03/07 09:31:26;;;;;;;12.07;7.80;;;19.40;56.10;;;;;;5021288;28;20045;-67
2024/03/07 09:33:54;;;;;;;10.20;7.45;;;19.40;56.00;;;;;;5024897;28;20072;-67
2024/03/07 09:36:19;;;;;;;9.75;7.57;;;19.40;55.90;;;;;;5022016;28;20026;-67
2024/03/07 09:38:44;;;;;;;8.57;7.40;;;19.40;55.90;;;;;;5021375;28;20029;-67
2024/03/07 09:41:10;;;;;;;10.68;8.10;;;19.40;55.90;;;;;;5025532;28;20029;-66
2024/03/07 09:43:38;;;;;;;8.80;7.10;;;19.50;55.80;;;;;;5018608;28;20029;-67
2024/03/07 09:46:05;;;;;;;10.65;7.82;;;19.50;55.90;;;;;;5023765;28;20060;-65
2024/03/07 09:48:31;;;;;;;9.82;7.57;;;19.50;55.70;;;;;;5023132;28;20045;-65
2024/03/07 09:50:59;;;;;;;9.40;7.07;;;19.50;55.70;;;;;;5027648;28;20575;-63
2024/03/07 09:53:25;;;;;;;9.45;7.47;;;19.50;55.80;;;;;;5017314;28;20034;-66
2024/03/07 09:55:52;;;;;;;8.60;7.07;;;19.50;56.40;;;;;;5010218;28;20116;-62
2024/03/07 09:58:19;;;;;;;8.80;7.90;;;19.50;55.70;;;;;;5022954;28;20075;-66
2024/03/07 10:00:46;;;;;;;11.68;7.93;;;19.60;55.70;;;;;;5023839;28;20025;-65
2024/03/07 10:03:15;;;;;;;7.97;6.53;;;19.60;55.70;;;;;;5023925;28;20021;-67
2024/03/07 10:05:42;;;;;;;10.27;7.15;;;19.60;55.70;;;;;;5029232;28;20032;-67
2024/03/07 10:08:07;;;;;;;10.98;7.40;;;19.60;55.70;;;;;;5021131;28;20032;-66
2024/03/07 10:10:33;;;;;;;8.38;6.95;;;19.60;55.70;;;;;;5027685;28;20065;-67
2024/03/07 10:12:59;;;;;;;7.63;6.80;;;19.60;55.70;;;;;;5022657;28;20021;-66
2024/03/07 10:15:29;;;;;;;8.85;7.00;;;19.60;55.70;;;;;;5023428;28;20702;-66
2024/03/07 10:17:54;;;;;;;8.57;7.03;;;19.60;55.70;;;;;;5025376;28;20026;-65
2024/03/07 10:20:22;;;;;;;8.45;7.35;;;19.60;55.60;;;;;;5029792;28;20040;-66
2024/03/07 10:22:48;;;;;;;12.25;7.20;;;19.60;55.70;;;;;;5016618;28;20033;-67
2024/03/07 10:25:25;;;;;;;10.43;7.15;;;19.70;55.70;;;;;;5023704;28;20026;-67
2024/03/07 10:27:51;;;;;;;9.23;6.60;;;19.70;55.70;;;;;;5023339;28;20037;-67
2024/03/07 10:30:20;;;;;;;9.18;7.32;;;19.60;55.70;;;;;;5020985;28;20022;-65
2024/03/07 10:32:46;;;;;;;9.25;7.63;;;19.60;55.70;;;;;;5013465;28;20077;-67
2024/03/07 10:35:14;;;;;;;8.43;6.93;;;19.60;55.70;;;;;;5021780;28;20037;-67
2024/03/07 10:37:40;;;;;;;9.73;7.07;;;19.60;55.70;;;;;;5024006;28;20508;-66
2024/03/07 10:40:15;;;;;;;7.90;6.25;;;19.60;55.70;;;;;;5023505;28;20034;-66
2024/03/07 10:42:46;;;;;;;7.35;6.47;;;19.60;55.80;;;;;;5006840;28;20034;-67
2024/03/07 10:45:16;;;;;;;8.00;6.97;;;19.60;55.80;;;;;;5025428;28;20034;-66
2024/03/07 10:47:45;;;;;;;7.47;6.50;;;19.60;55.70;;;;;;5025384;28;20451;-66
2024/03/07 10:50:42;;;;;;;8.68;6.82;;;19.60;55.70;;;;;;5023415;28;20102;-66
2024/03/07 10:53:14;;;;;;;8.57;6.68;;;19.50;55.80;;;;;;5013304;28;20037;-66
2024/03/07 10:56:00;;;;;;;8.45;6.70;;;19.50;55.90;;;;;;5022778;28;20504;-66
2024/03/07 10:58:45;;;;;;;8.25;6.95;;;19.50;55.90;;;;;;5018506;28;20434;-66
2024/03/07 11:01:14;;;;;;;8.23;6.72;;;19.50;56.00;;;;;;5017886;28;20440;-67
2024/03/07 11:03:41;;;;;;;8.73;6.15;;;19.50;56.10;;;;;;5020907;28;20030;-68
2024/03/07 11:06:11;;;;;;;7.15;6.38;;;19.50;56.10;;;;;;5019046;28;20466;-67
2024/03/07 11:08:37;;;;;;;7.03;5.85;;;19.50;56.20;;;;;;5016249;28;20034;-66
2024/03/07 11:11:03;;;;;;;7.95;6.43;;;19.40;56.10;;;;;;5021409;28;20393;-67
2024/03/07 11:13:30;;;;;;;7.88;7.07;;;19.40;56.20;;;;;;5019058;28;20048;-67
2024/03/07 11:15:59;;;;;;;6.88;5.97;;;19.40;56.10;;;;;;5021198;28;20079;-67
2024/03/07 11:18:26;;;;;;;9.45;6.95;;;19.40;56.20;;;;;;5024066;28;20037;-67
2024/03/07 11:20:52;;;;;;;7.35;6.63;;;19.40;56.20;;;;;;5023607;28;20504;-67
2024/03/07 11:23:32;;;;;;;7.28;6.57;;;19.40;56.20;;;;;;5024561;28;20040;-66
2024/03/07 11:26:08;;;;;;;7.00;6.30;;;19.40;56.30;;;;;;5017787;28;20048;-67
2024/03/07 11:28:37;;;;;;;7.00;6.30;;;19.40;56.30;;;;;;5022296;28;20075;-66
2024/03/07 11:31:12;;;;;;;8.82;7.22;;;19.30;56.30;;;;;;4994707;28;20037;-67
2024/03/07 11:33:41;;;;;;;7.13;6.38;;;19.30;56.30;;;;;;5018233;28;20132;-67
2024/03/07 11:36:12;;;;;;;9.50;6.72;;;19.30;56.20;;;;;;5022746;28;20060;-66
2024/03/07 11:38:46;;;;;;;7.55;6.35;;;19.40;56.40;;;;;;5014312;28;20588;-66
2024/03/07 11:41:13;;;;;;;6.65;5.85;;;19.30;56.40;;;;;;5020027;28;20033;-66
2024/03/07 11:43:40;;;;;;;7.97;6.35;;;19.30;56.40;;;;;;5022591;28;20045;-67
2024/03/07 11:46:11;;;;;;;7.25;6.10;;;19.30;56.40;;;;;;5021398;28;20025;-67
2024/03/07 11:48:41;;;;;;;8.30;6.65;;;19.30;56.40;;;;;;5024439;28;20674;-65
2024/03/07 11:51:10;;;;;;;6.72;6.10;;;19.30;56.40;;;;;;5020924;28;20030;-64
2024/03/07 11:53:38;;;;;;;7.70;5.90;;;19.30;56.40;;;;;;5024069;28;20080;-67
2024/03/07 11:56:09;;;;;;;6.97;5.90;;;19.30;56.40;;;;;;5019544;28;20482;-67
2024/03/07 11:58:40;;;;;;;6.50;5.90;;;19.30;56.50;;;;;;5021858;28;20034;-67
2024/03/07 12:01:10;;;;;;;6.68;5.97;;;19.30;56.40;;;;;;4992429;28;20388;-67
2024/03/07 12:03:37;;;;;;;6.47;5.60;;;19.20;56.40;;;;;;5021120;28;20048;-67
2024/03/07 12:06:03;;;;;;;6.32;5.63;;;19.30;56.50;;;;;;5018761;28;20040;-67
2024/03/07 12:08:29;;;;;;;6.05;5.13;;;19.20;56.50;;;;;;5019641;28;20041;-66
2024/03/07 12:10:55;;;;;;;6.68;5.75;;;19.20;56.40;;;;;;5005566;28;20041;-67
2024/03/07 12:13:22;;;;;;;7.00;6.22;;;19.20;56.50;;;;;;5024378;28;20523;-65
2024/03/07 12:15:51;;;;;;;6.90;5.80;;;19.20;56.50;;;;;;5008136;28;20060;-67
2024/03/07 12:18:18;;;;;;;5.68;5.05;;;19.20;56.50;;;;;;5025176;28;20025;-66
2024/03/07 12:20:53;;;;;;;7.28;5.97;;;19.20;56.50;;;;;;5016928;28;20033;-67
2024/03/07 12:23:19;;;;;;;6.78;6.18;;;19.20;56.50;;;;;;5019914;28;20024;-65
2024/03/07 12:25:45;;;;;;;6.35;5.75;;;19.20;56.60;;;;;;5018208;28;20022;-67
2024/03/07 12:28:12;;;;;;;6.22;5.63;;;19.20;56.50;;;;;;5021259;28;20061;-66
2024/03/07 12:30:51;;;;;;;6.32;5.60;;;19.20;56.60;;;;;;5020188;28;20037;-67
2024/03/07 12:33:18;;;;;;;6.97;6.15;;;19.20;56.60;;;;;;5023058;28;20029;-67
2024/03/07 12:35:44;;;;;;;7.38;5.78;;;19.20;56.60;;;;;;5021756;28;20030;-66
2024/03/07 12:38:11;;;;;;;7.22;5.68;;;19.20;56.60;;;;;;5018829;28;20118;-66
2024/03/07 12:40:37;;;;;;;5.93;5.32;;;19.20;56.60;;;;;;5019146;28;20029;-67
2024/03/07 12:43:22;;;;;;;6.90;6.18;;;19.20;56.60;;;;;;5019323;28;20032;-67
2024/03/07 12:45:51;;;;;;;6.05;5.45;;;19.20;56.60;;;;;;4999292;28;20037;-67